createdAt,value
2023-05-05T00:02:27.447Z,99714.63
2023-05-05T00:04:55.533Z,99717.44
2023-05-05T00:07:23.230Z,99723.03
2023-05-05T00:09:51.051Z,99713.16
2023-05-05T00:12:18.771Z,99714.25
2023-05-05T00:14:46.530Z,99712.69
2023-05-05T00:17:14.330Z,99703.44
2023-05-05T00:19:42.156Z,99694.78
2023-05-05T00:22:12.494Z,99694.91
2023-05-05T00:24:40.334Z,99707.31
2023-05-05T00:27:08.076Z,99698.75
2023-05-05T00:29:36.456Z,99694.50
2023-05-05T00:32:04.364Z,99704.22
2023-05-05T00:34:32.156Z,99704.91
2023-05-05T00:37:00.820Z,99699.00
2023-05-05T00:39:28.553Z,99704.38
2023-05-05T00:41:56.433Z,99697.97
2023-05-05T00:44:37.390Z,99704.19
2023-05-05T00:47:05.712Z,99700.16
2023-05-05T00:49:35.500Z,99693.31
2023-05-05T00:52:04.306Z,99700.84
2023-05-05T00:54:32.212Z,99701.53
2023-05-05T00:57:03.187Z,99700.53
2023-05-05T00:59:31.636Z,99711.50
2023-05-05T01:01:59.959Z,99701.59
2023-05-05T01:04:28.098Z,99704.63
2023-05-05T01:07:02.220Z,99704.41
2023-05-05T01:09:42.549Z,99701.84
2023-05-05T01:12:19.513Z,99699.75
2023-05-05T01:15:02.953Z,99693.13
2023-05-05T01:17:43.213Z,99696.16
2023-05-05T01:20:18.990Z,99703.22
2023-05-05T01:22:47.854Z,99688.81
2023-05-05T01:25:41.731Z,99695.91
2023-05-05T01:28:28.683Z,99695.22
2023-05-05T01:31:05.916Z,99703.59
2023-05-05T01:33:41.005Z,99688.38
2023-05-05T01:36:13.732Z,99688.75
2023-05-05T01:38:44.504Z,99686.59
2023-05-05T01:41:17.783Z,99685.53
2023-05-05T01:43:50.021Z,99688.09
2023-05-05T01:46:19.394Z,99684.50
2023-05-05T01:48:48.640Z,99691.56
2023-05-05T01:51:18.094Z,99687.28
2023-05-05T01:53:47.421Z,99690.31
2023-05-05T01:56:16.511Z,99683.63
2023-05-05T01:58:45.413Z,99681.06
2023-05-05T02:01:13.861Z,99674.63
2023-05-05T02:03:42.445Z,99675.84
2023-05-05T02:06:10.489Z,99670.91
2023-05-05T02:08:39.784Z,99676.03
2023-05-05T02:11:09.695Z,99674.09
2023-05-05T02:13:39.623Z,99682.47
2023-05-05T02:16:07.686Z,99673.84
2023-05-05T02:18:36.246Z,99676.34
2023-05-05T02:21:04.365Z,99676.50
2023-05-05T02:23:33.460Z,99678.84
2023-05-05T02:26:06.664Z,99688.56
2023-05-05T02:28:42.392Z,99684.66
2023-05-05T02:31:10.957Z,99685.94
2023-05-05T02:33:39.673Z,99676.44
2023-05-05T02:36:13.016Z,99675.91
2023-05-05T02:38:54.856Z,99673.19
2023-05-05T02:41:25.725Z,99675.59
2023-05-05T02:43:55.462Z,99674.59
2023-05-05T02:46:23.978Z,99672.47
2023-05-05T02:48:52.682Z,99668.31
2023-05-05T02:51:20.658Z,99669.56
2023-05-05T02:53:48.612Z,99661.09
2023-05-05T02:56:39.010Z,99670.88
2023-05-05T02:59:16.440Z,99654.44
2023-05-05T03:01:57.575Z,99656.13
2023-05-05T03:05:01.712Z,99657.00
2023-05-05T03:07:48.120Z,99665.16
2023-05-05T03:10:18.938Z,99665.25
2023-05-05T03:12:54.019Z,99664.03
2023-05-05T03:15:41.608Z,99665.97
2023-05-05T03:18:13.069Z,99661.50
2023-05-05T03:20:44.528Z,99670.34
2023-05-05T03:23:15.106Z,99663.38
2023-05-05T03:25:46.791Z,99670.53
2023-05-05T03:28:22.585Z,99661.81
2023-05-05T03:30:51.022Z,99662.19
2023-05-05T03:33:19.929Z,99667.75
2023-05-05T03:35:48.065Z,99647.81
2023-05-05T03:38:15.877Z,99641.56
2023-05-05T03:40:45.006Z,99629.56
2023-05-05T03:43:17.497Z,99644.75
2023-05-05T03:45:45.366Z,99635.75
2023-05-05T03:48:13.679Z,99639.75
2023-05-05T03:50:45.253Z,99652.91
2023-05-05T03:53:14.462Z,99656.91
2023-05-05T03:55:43.423Z,99664.63
2023-05-05T03:58:12.267Z,99652.84
2023-05-05T04:00:40.042Z,99652.28
2023-05-05T04:03:08.036Z,99648.34
2023-05-05T04:05:36.130Z,99657.75
2023-05-05T04:08:04.146Z,99663.44
2023-05-05T04:10:32.331Z,99657.19
2023-05-05T04:13:01.425Z,99651.78
2023-05-05T04:15:31.152Z,99656.50
2023-05-05T04:17:59.038Z,99657.72
2023-05-05T04:20:27.572Z,99658.28
2023-05-05T04:23:00.389Z,99664.13
2023-05-05T04:25:30.525Z,99662.16
2023-05-05T04:28:02.534Z,99670.63
2023-05-05T04:30:31.730Z,99665.19
2023-05-05T04:33:03.003Z,99665.09
2023-05-05T04:35:31.465Z,99680.00
2023-05-05T04:38:02.061Z,99682.06
2023-05-05T04:40:31.456Z,99684.97
2023-05-05T04:42:59.959Z,99686.63
2023-05-05T04:45:27.942Z,99677.63
2023-05-05T04:47:56.058Z,99681.03
2023-05-05T04:50:23.853Z,99691.22
2023-05-05T04:52:52.767Z,99688.84
2023-05-05T04:55:21.432Z,99704.72
2023-05-05T04:57:49.280Z,99705.63
2023-05-05T05:00:17.297Z,99700.78
2023-05-05T05:02:45.071Z,99702.50
2023-05-05T05:05:12.883Z,99703.88
2023-05-05T05:07:40.966Z,99719.75
2023-05-05T05:10:09.524Z,99724.19
2023-05-05T05:12:37.649Z,99728.34
2023-05-05T05:15:06.304Z,99724.66
2023-05-05T05:17:36.274Z,99738.44
2023-05-05T05:20:05.145Z,99734.31
2023-05-05T05:22:35.045Z,99727.19
2023-05-05T05:25:03.904Z,99735.47
2023-05-05T05:27:31.798Z,99724.63
2023-05-05T05:29:59.630Z,99726.31
2023-05-05T05:32:28.241Z,99731.63
2023-05-05T05:34:56.473Z,99730.84
2023-05-05T05:37:24.376Z,99722.63
2023-05-05T05:39:55.656Z,99734.31
2023-05-05T05:42:24.957Z,99746.19
2023-05-05T05:44:53.603Z,99735.75
2023-05-05T05:47:21.463Z,99735.91
2023-05-05T05:49:50.580Z,99749.28
2023-05-05T05:52:18.362Z,99756.38
2023-05-05T05:54:46.374Z,99751.72
2023-05-05T05:57:14.225Z,99756.91
2023-05-05T05:59:42.254Z,99747.91
2023-05-05T06:02:10.573Z,99752.19
2023-05-05T06:04:38.673Z,99758.88
2023-05-05T06:07:06.525Z,99752.22
2023-05-05T06:09:34.492Z,99759.91
2023-05-05T06:12:03.987Z,99757.31
2023-05-05T06:14:32.592Z,99752.72
2023-05-05T06:17:03.197Z,99757.84
2023-05-05T06:19:33.300Z,99762.19
2023-05-05T06:22:01.295Z,99760.28
2023-05-05T06:24:29.339Z,99751.56
2023-05-05T06:26:59.421Z,99760.50
2023-05-05T06:29:27.222Z,99757.22
2023-05-05T06:31:55.305Z,99753.53
2023-05-05T06:34:23.088Z,99756.09
2023-05-05T06:36:50.948Z,99738.00
2023-05-05T06:39:18.784Z,99762.72
2023-05-05T06:41:46.540Z,99765.25
2023-05-05T06:44:14.364Z,99760.25
2023-05-05T06:46:43.933Z,99768.56
2023-05-05T06:49:11.846Z,99768.06
2023-05-05T06:51:41.049Z,99772.22
2023-05-05T06:54:29.565Z,99761.38
2023-05-05T06:56:59.408Z,99765.75
2023-05-05T06:59:27.513Z,99773.00
2023-05-05T07:01:55.202Z,99767.56
2023-05-05T07:04:23.168Z,99783.72
2023-05-05T07:06:50.924Z,99788.81
2023-05-05T07:09:18.809Z,99780.91
2023-05-05T07:11:46.781Z,99777.41
2023-05-05T07:14:14.599Z,99773.19
2023-05-05T07:16:42.445Z,99788.41
2023-05-05T07:19:10.235Z,99786.75
2023-05-05T07:21:39.781Z,99786.03
2023-05-05T07:24:07.767Z,99790.50
2023-05-05T07:26:35.760Z,99791.53
2023-05-05T07:29:04.670Z,99791.41
2023-05-05T07:31:32.559Z,99784.31
2023-05-05T07:34:00.757Z,99798.66
2023-05-05T07:36:28.676Z,99789.34
2023-05-05T07:38:56.646Z,99796.25
2023-05-05T07:41:24.446Z,99801.63
2023-05-05T07:43:52.245Z,99794.19
2023-05-05T07:46:20.134Z,99801.13
2023-05-05T07:48:48.009Z,99803.44
2023-05-05T07:51:16.284Z,99802.16
2023-05-05T07:53:44.135Z,99809.50
2023-05-05T07:56:11.905Z,99791.31
2023-05-05T07:58:39.692Z,99805.34
2023-05-05T08:01:10.954Z,99806.75
2023-05-05T08:03:38.950Z,99810.06
2023-05-05T08:06:09.585Z,99810.38
2023-05-05T08:08:38.018Z,99821.78
2023-05-05T08:11:06.725Z,99824.28
2023-05-05T08:13:34.893Z,99823.22
2023-05-05T08:16:02.868Z,99827.22
2023-05-05T08:18:30.733Z,99831.72
2023-05-05T08:20:58.476Z,99839.03
2023-05-05T08:23:26.219Z,99839.75
2023-05-05T08:25:54.023Z,99844.25
2023-05-05T08:28:23.110Z,99855.28
2023-05-05T08:30:51.040Z,99865.38
2023-05-05T08:33:18.847Z,99876.72
2023-05-05T08:35:46.756Z,99881.19
2023-05-05T08:38:14.668Z,99881.38
2023-05-05T08:40:42.857Z,99880.69
2023-05-05T08:43:11.432Z,99874.94
2023-05-05T08:45:42.502Z,99898.31
2023-05-05T08:48:10.395Z,99902.91
2023-05-05T08:50:40.145Z,99903.16
2023-05-05T08:53:15.543Z,99899.28
2023-05-05T08:55:53.415Z,99897.31
2023-05-05T08:58:23.400Z,99898.03
2023-05-05T09:00:52.019Z,99897.19
2023-05-05T09:03:20.280Z,99895.47
2023-05-05T09:05:48.241Z,99902.97
2023-05-05T09:08:16.441Z,99899.34
2023-05-05T09:10:44.925Z,99900.22
2023-05-05T09:13:13.342Z,99903.97
2023-05-05T09:15:42.267Z,99901.19
2023-05-05T09:18:12.182Z,99906.88
2023-05-05T09:20:41.350Z,99901.50
2023-05-05T09:23:12.758Z,99912.72
2023-05-05T09:25:41.709Z,99907.53
2023-05-05T09:28:15.149Z,99912.94
2023-05-05T09:30:47.094Z,99917.44
2023-05-05T09:33:14.934Z,99902.97
2023-05-05T09:35:51.191Z,99922.84
2023-05-05T09:38:20.253Z,99924.88
2023-05-05T09:40:49.775Z,99922.97
2023-05-05T09:43:18.932Z,99922.28
2023-05-05T09:45:48.901Z,99921.31
2023-05-05T09:48:31.260Z,99912.16
2023-05-05T09:50:59.701Z,99911.44
2023-05-05T09:53:28.221Z,99907.47
2023-05-05T09:55:57.405Z,99897.63
2023-05-05T09:58:30.740Z,99920.72
2023-05-05T10:00:59.452Z,99915.06
2023-05-05T10:03:27.314Z,99921.38
2023-05-05T10:05:57.227Z,99912.06
2023-05-05T10:08:26.458Z,99914.88
2023-05-05T10:11:00.645Z,99917.13
2023-05-05T10:13:28.928Z,99911.00
2023-05-05T10:15:58.174Z,99911.66
2023-05-05T10:18:27.599Z,99902.19
2023-05-05T10:20:58.648Z,99903.69
2023-05-05T10:24:06.192Z,99885.00
2023-05-05T10:26:35.234Z,99894.03
2023-05-05T10:29:03.288Z,99908.81
2023-05-05T10:31:47.256Z,99884.84
2023-05-05T10:34:29.829Z,99891.44
2023-05-05T10:36:57.814Z,99907.19
2023-05-05T10:39:26.898Z,99901.81
2023-05-05T10:41:54.775Z,99906.38
2023-05-05T10:44:23.152Z,99910.22
2023-05-05T10:46:51.400Z,99911.13
2023-05-05T10:49:37.878Z,99909.25
2023-05-05T10:52:28.692Z,99909.44
2023-05-05T10:55:12.261Z,99898.38
2023-05-05T10:57:42.088Z,99891.53
2023-05-05T11:00:10.991Z,99911.81
2023-05-05T11:02:38.972Z,99890.03
2023-05-05T11:05:25.944Z,99909.72
2023-05-05T11:07:53.676Z,99908.50
2023-05-05T11:10:23.190Z,99916.66
2023-05-05T11:13:03.251Z,99910.88
2023-05-05T11:15:31.304Z,99911.06
2023-05-05T11:18:07.356Z,99910.44
2023-05-05T11:20:43.269Z,99914.06
2023-05-05T11:23:13.358Z,99902.19
2023-05-05T11:25:45.446Z,99897.91
2023-05-05T11:28:15.052Z,99899.56
2023-05-05T11:30:55.046Z,99899.22
2023-05-05T11:33:39.919Z,99898.28
2023-05-05T11:36:09.543Z,99906.19
2023-05-05T11:38:52.432Z,99894.00
2023-05-05T11:41:33.595Z,99897.78
2023-05-05T11:44:30.859Z,99891.69
2023-05-05T11:47:02.307Z,99899.50
2023-05-05T11:49:47.757Z,99906.03
2023-05-05T11:52:15.655Z,99910.91
2023-05-05T11:54:49.328Z,99908.50
2023-05-05T11:57:21.326Z,99905.63
2023-05-05T12:00:07.733Z,99916.31
2023-05-05T12:02:41.999Z,99913.50
2023-05-05T12:05:09.922Z,99920.09
2023-05-05T12:07:37.805Z,99919.03
2023-05-05T12:10:06.306Z,99907.41
2023-05-05T12:12:38.730Z,99910.41
2023-05-05T12:15:08.302Z,99918.16
2023-05-05T12:17:41.055Z,99902.16
2023-05-05T12:20:10.586Z,99915.47
2023-05-05T12:22:38.882Z,99912.44
2023-05-05T12:25:08.135Z,99917.88
2023-05-05T12:27:36.297Z,99908.44
2023-05-05T12:30:18.125Z,99914.03
2023-05-05T12:32:46.204Z,99923.91
2023-05-05T12:35:14.585Z,99911.53
2023-05-05T12:37:43.621Z,99922.53
2023-05-05T12:40:45.188Z,99920.72
2023-05-05T12:43:29.485Z,99916.06
2023-05-05T12:46:12.499Z,99905.22
2023-05-05T12:48:52.850Z,99901.56
2023-05-05T12:51:27.354Z,99875.53
2023-05-05T12:54:09.994Z,99895.94
2023-05-05T12:56:40.708Z,99909.03
2023-05-05T12:59:23.951Z,99898.34
2023-05-05T13:01:56.341Z,99910.19
2023-05-05T13:04:27.876Z,99904.53
2023-05-05T13:07:13.027Z,99907.84
2023-05-05T13:09:42.558Z,99915.78
2023-05-05T13:12:12.965Z,99893.94
2023-05-05T13:14:42.147Z,99903.91
2023-05-05T13:17:11.566Z,99901.91
2023-05-05T13:19:46.550Z,99904.50
2023-05-05T13:22:16.177Z,99903.19
2023-05-05T13:24:52.174Z,99908.13
2023-05-05T13:27:24.485Z,99904.63
2023-05-05T13:29:52.397Z,99901.44
2023-05-05T13:32:21.516Z,99908.69
2023-05-05T13:35:00.838Z,99896.63
2023-05-05T13:37:54.861Z,99877.25
2023-05-05T13:40:25.212Z,99848.38
2023-05-05T13:42:53.855Z,99904.13
2023-05-05T13:45:21.822Z,99909.81
2023-05-05T13:47:49.713Z,99894.66
2023-05-05T13:50:18.458Z,99900.31
2023-05-05T13:52:46.377Z,99907.03
2023-05-05T13:55:14.186Z,99895.59
2023-05-05T13:57:42.456Z,99894.34
2023-05-05T14:00:10.744Z,99899.66
2023-05-05T14:02:38.601Z,99892.47
2023-05-05T14:05:07.530Z,99905.31
2023-05-05T14:07:35.484Z,99890.50
2023-05-05T14:10:03.341Z,99890.47
2023-05-05T14:12:32.556Z,99879.88
2023-05-05T14:15:02.718Z,99886.03
2023-05-05T14:17:38.110Z,99894.03
2023-05-05T14:20:09.543Z,99889.28
2023-05-05T14:22:37.569Z,99885.59
2023-05-05T14:25:06.408Z,99883.66
2023-05-05T14:27:34.508Z,99874.81
2023-05-05T14:30:03.524Z,99888.97
2023-05-05T14:32:33.225Z,99895.78
2023-05-05T14:35:01.114Z,99890.38
2023-05-05T14:37:28.999Z,99892.88
2023-05-05T14:39:56.839Z,99897.84
2023-05-05T14:42:25.420Z,99889.06
2023-05-05T14:44:53.693Z,99901.06
2023-05-05T14:47:21.545Z,99894.69
2023-05-05T14:49:49.547Z,99897.09
2023-05-05T14:52:17.409Z,99890.72
2023-05-05T14:54:45.218Z,99896.59
2023-05-05T14:57:13.073Z,99906.06
2023-05-05T14:59:40.956Z,99897.88
2023-05-05T15:02:08.866Z,99898.97
2023-05-05T15:04:36.805Z,99888.28
2023-05-05T15:07:18.211Z,99891.66
2023-05-05T15:09:46.067Z,99887.16
2023-05-05T15:12:13.943Z,99886.91
2023-05-05T15:14:42.501Z,99900.47
2023-05-05T15:17:13.613Z,99897.66
2023-05-05T15:19:41.779Z,99899.19
2023-05-05T15:22:09.631Z,99885.47
2023-05-05T15:24:37.462Z,99889.59
2023-05-05T15:27:05.608Z,99870.50
2023-05-05T15:29:33.567Z,99891.13
2023-05-05T15:32:01.609Z,99899.28
2023-05-05T15:34:29.549Z,99895.66
2023-05-05T15:36:57.490Z,99895.69
2023-05-05T15:39:25.494Z,99894.41
2023-05-05T15:42:00.696Z,99890.31
2023-05-05T15:44:28.605Z,99895.72
2023-05-05T15:46:56.538Z,99899.16
2023-05-05T15:49:27.559Z,99898.28
2023-05-05T15:51:55.294Z,99895.09
2023-05-05T15:54:23.082Z,99876.41
2023-05-05T15:56:50.786Z,99892.03
2023-05-05T15:59:19.206Z,99893.78
2023-05-05T16:01:47.691Z,99894.19
2023-05-05T16:04:54.050Z,99889.69
2023-05-05T16:07:21.898Z,99900.19
2023-05-05T16:09:49.758Z,99900.41
2023-05-05T16:12:17.617Z,99900.63
2023-05-05T16:14:45.473Z,99888.38
2023-05-05T16:17:13.286Z,99907.06
2023-05-05T16:19:41.164Z,99895.69
2023-05-05T16:22:09.178Z,99908.78
2023-05-05T16:24:37.456Z,99907.91
2023-05-05T16:27:05.234Z,99912.84
2023-05-05T16:29:33.156Z,99903.41
2023-05-05T16:32:01.282Z,99905.56
2023-05-05T16:34:29.174Z,99902.34
2023-05-05T16:36:57.510Z,99901.47
2023-05-05T16:39:26.338Z,99891.84
2023-05-05T16:41:54.326Z,99896.13
2023-05-05T16:44:22.133Z,99895.03
2023-05-05T16:46:49.987Z,99887.97
2023-05-05T16:49:18.492Z,99895.88
2023-05-05T16:51:46.243Z,99881.06
2023-05-05T16:54:14.128Z,99901.44
2023-05-05T16:56:42.017Z,99896.72
2023-05-05T16:59:09.786Z,99915.38
2023-05-05T17:01:37.697Z,99914.50
2023-05-05T17:04:06.752Z,99922.66
2023-05-05T17:06:35.684Z,99897.31
2023-05-05T17:09:03.576Z,99912.97
2023-05-05T17:11:31.492Z,99917.31
2023-05-05T17:13:59.356Z,99921.34
2023-05-05T17:16:27.314Z,99907.38
2023-05-05T17:18:55.182Z,99911.50
2023-05-05T17:21:23.572Z,99915.97
2023-05-05T17:23:51.457Z,99929.25
2023-05-05T17:26:19.359Z,99922.59
2023-05-05T17:28:47.277Z,99924.09
2023-05-05T17:31:25.074Z,99917.41
2023-05-05T17:33:53.050Z,99922.34
2023-05-05T17:36:21.094Z,99917.81
2023-05-05T17:38:48.920Z,99912.69
2023-05-05T17:41:17.042Z,99913.09
2023-05-05T17:43:44.926Z,99926.59
2023-05-05T17:46:12.729Z,99907.72
2023-05-05T17:48:40.815Z,99905.78
2023-05-05T17:51:08.805Z,99905.59
2023-05-05T17:53:36.661Z,99919.72
2023-05-05T17:56:06.514Z,99909.44
2023-05-05T17:58:36.077Z,99914.13
2023-05-05T18:01:06.384Z,99913.22
2023-05-05T18:03:39.211Z,99907.88
2023-05-05T18:06:11.693Z,99917.94
2023-05-05T18:08:39.824Z,99912.16
2023-05-05T18:11:07.814Z,99908.47
2023-05-05T18:13:35.764Z,99918.75
2023-05-05T18:16:03.993Z,99918.50
2023-05-05T18:18:37.892Z,99917.41
2023-05-05T18:21:12.357Z,99876.97
2023-05-05T18:23:40.637Z,99920.56
2023-05-05T18:26:08.870Z,99913.50
2023-05-05T18:28:40.333Z,99914.13
2023-05-05T18:31:22.014Z,99915.59
2023-05-05T18:33:52.896Z,99913.88
2023-05-05T18:36:23.914Z,99908.31
2023-05-05T18:38:52.190Z,99912.59
2023-05-05T18:41:25.564Z,99914.31
2023-05-05T18:43:53.571Z,99925.22
2023-05-05T18:46:35.986Z,99922.59
2023-05-05T18:49:14.415Z,99915.13
2023-05-05T18:51:42.847Z,99913.78
2023-05-05T18:54:10.929Z,99918.06
2023-05-05T18:56:41.729Z,99884.66
2023-05-05T18:59:25.098Z,99899.75
2023-05-05T19:01:59.538Z,99901.47
2023-05-05T19:04:44.083Z,99921.66
2023-05-05T19:07:24.093Z,99926.56
2023-05-05T19:10:02.223Z,99915.56
2023-05-05T19:12:33.073Z,99926.56
2023-05-05T19:15:05.075Z,99925.50
2023-05-05T19:17:33.632Z,99908.50
2023-05-05T19:20:01.650Z,99913.19
2023-05-05T19:22:32.504Z,99926.47
2023-05-05T19:25:04.000Z,99922.75
2023-05-05T19:27:43.193Z,99890.66
2023-05-05T19:30:11.845Z,99924.47
2023-05-05T19:32:46.737Z,99881.06
2023-05-05T19:35:24.355Z,99913.56
2023-05-05T19:39:00.023Z,99853.75
2023-05-05T19:41:37.096Z,99915.72
2023-05-05T19:48:24.749Z,99872.63
2023-05-05T19:51:08.587Z,99907.75
2023-05-05T19:54:03.540Z,99863.63
2023-05-05T19:57:45.111Z,99927.81
2023-05-05T20:00:40.935Z,99900.28
2023-05-05T20:03:10.089Z,99862.91
2023-05-05T20:05:55.062Z,99906.78
2023-05-05T20:08:52.303Z,99872.97
2023-05-05T20:11:36.125Z,99885.19
2023-05-05T20:14:15.921Z,99870.38
2023-05-05T20:20:12.937Z,99927.16
2023-05-05T20:22:45.345Z,99885.19
2023-05-05T20:25:15.418Z,99926.28
2023-05-05T20:27:44.521Z,99907.84
2023-05-05T20:30:21.896Z,99915.59
2023-05-05T20:32:58.403Z,99894.44
2023-05-05T20:35:37.912Z,99858.94
2023-05-05T20:38:09.829Z,99924.66
2023-05-05T20:40:53.530Z,99884.00
2023-05-05T20:43:32.086Z,99886.59
2023-05-05T20:46:07.409Z,99900.16
2023-05-05T20:48:44.645Z,99889.38
2023-05-05T20:51:12.777Z,99927.22
2023-05-05T20:53:43.750Z,99901.00
2023-05-05T20:56:13.686Z,99933.00
2023-05-05T20:58:41.554Z,99917.97
2023-05-05T21:01:30.079Z,99924.38
2023-05-05T21:03:58.209Z,99923.25
2023-05-05T21:06:26.135Z,99911.19
2023-05-05T21:08:53.898Z,99918.94
2023-05-05T21:11:21.784Z,99920.00
2023-05-05T21:13:58.514Z,99916.56
2023-05-05T21:16:26.470Z,99915.91
2023-05-05T21:18:54.430Z,99908.16
2023-05-05T21:21:23.948Z,99910.00
2023-05-05T21:23:51.885Z,99908.47
2023-05-05T21:26:19.721Z,99914.44
2023-05-05T21:28:47.527Z,99922.34
2023-05-05T21:33:48.986Z,99919.97
2023-05-05T21:36:17.813Z,99898.75
2023-05-05T21:38:46.116Z,99917.78
2023-05-05T21:41:29.807Z,99910.72
2023-05-05T21:44:01.036Z,99901.53
2023-05-05T21:46:29.178Z,99912.06
2023-05-05T21:48:57.248Z,99900.19
2023-05-05T21:51:25.441Z,99904.41
2023-05-05T21:53:53.258Z,99906.72
2023-05-05T21:56:21.053Z,99904.63
2023-05-05T21:58:48.807Z,99909.28
2023-05-05T22:01:16.547Z,99912.06
2023-05-05T22:03:49.424Z,99900.41
2023-05-05T22:06:17.538Z,99908.53
2023-05-05T22:08:45.326Z,99903.75
2023-05-05T22:11:13.237Z,99915.75
2023-05-05T22:13:41.299Z,99917.00
2023-05-05T22:16:09.958Z,99929.56
2023-05-05T22:18:38.177Z,99916.25
2023-05-05T22:21:06.263Z,99915.59
2023-05-05T22:23:34.145Z,99918.28
2023-05-05T22:26:02.072Z,99920.84
2023-05-05T22:28:33.141Z,99921.25
2023-05-05T22:31:01.219Z,99923.31
2023-05-05T22:33:29.045Z,99914.91
2023-05-05T22:35:57.574Z,99907.53
2023-05-05T22:38:27.936Z,99916.16
2023-05-05T22:40:55.761Z,99920.00
2023-05-05T22:43:23.550Z,99918.84
2023-05-05T22:45:51.416Z,99927.56
2023-05-05T22:48:19.243Z,99916.63
2023-05-05T22:50:47.189Z,99924.78
2023-05-05T22:53:14.997Z,99925.84
2023-05-05T22:55:42.733Z,99912.25
2023-05-05T22:58:10.504Z,99916.56
2023-05-05T23:00:38.318Z,99911.94
2023-05-05T23:03:06.255Z,99922.88
2023-05-05T23:05:34.758Z,99927.25
2023-05-05T23:08:02.601Z,99922.25
2023-05-05T23:10:30.833Z,99929.53
2023-05-05T23:12:58.737Z,99921.13
2023-05-05T23:15:26.675Z,99934.13
2023-05-05T23:17:54.708Z,99920.72
2023-05-05T23:20:22.662Z,99925.88
2023-05-05T23:22:50.583Z,99933.06
2023-05-05T23:25:18.758Z,99920.63
2023-05-05T23:27:48.537Z,99930.84
2023-05-05T23:30:16.724Z,99930.00
2023-05-05T23:32:45.125Z,99938.19
2023-05-05T23:35:13.230Z,99944.97
2023-05-05T23:37:41.112Z,99923.78
2023-05-05T23:40:09.395Z,99935.38
2023-05-05T23:42:37.139Z,99941.59
2023-05-05T23:45:05.197Z,99940.41
2023-05-05T23:47:33.057Z,99944.44
2023-05-05T23:50:01.031Z,99935.66
2023-05-05T23:52:29.685Z,99948.25
2023-05-05T23:54:57.501Z,99948.13
2023-05-05T23:57:25.483Z,99949.19
2023-05-05T23:59:53.320Z,99950.44
